sensor_id;sensor_type;location;lat;lon;timestamp;P1;durP1;ratioP1;P2;durP2;ratioP2
66603;SDS011;53460;39.612;8.822;2023-02-01T00:02:24;17.50;;;10.50;;
66603;SDS011;53460;39.612;8.822;2023-02-01T00:04:49;14.45;;;9.35;;
66603;SDS011;53460;39.612;8.822;2023-02-01T00:07:15;23.27;;;10.95;;
66603;SDS011;53460;39.612;8.822;2023-02-01T00:09:41;17.77;;;9.20;;
66603;SDS011;53460;39.612;8.822;2023-02-01T00:12:06;12.02;;;8.48;;
66603;SDS011;53460;39.612;8.822;2023-02-01T00:14:32;16.17;;;8.75;;
66603;SDS011;53460;39.612;8.822;2023-02-01T00:17:06;15.85;;;10.43;;
66603;SDS011;53460;39.612;8.822;2023-02-01T00:19:32;13.13;;;10.65;;
66603;SDS011;53460;39.612;8.822;2023-02-01T00:21:58;14.52;;;9.15;;
66603;SDS011;53460;39.612;8.822;2023-02-01T00:24:24;17.58;;;8.90;;
66603;SDS011;53460;39.612;8.822;2023-02-01T00:26:50;15.45;;;8.32;;
66603;SDS011;53460;39.612;8.822;2023-02-01T00:29:17;11.15;;;6.57;;
66603;SDS011;53460;39.612;8.822;2023-02-01T00:31:44;9.40;;;5.60;;
66603;SDS011;53460;39.612;8.822;2023-02-01T00:34:11;6.47;;;4.50;;
66603;SDS011;53460;39.612;8.822;2023-02-01T00:36:40;7.40;;;4.45;;
66603;SDS011;53460;39.612;8.822;2023-02-01T00:39:06;8.70;;;5.65;;
66603;SDS011;53460;39.612;8.822;2023-02-01T00:41:32;9.73;;;4.55;;
66603;SDS011;53460;39.612;8.822;2023-02-01T00:43:57;5.93;;;3.65;;
66603;SDS011;53460;39.612;8.822;2023-02-01T00:46:23;6.70;;;3.28;;
66603;SDS011;53460;39.612;8.822;2023-02-01T00:48:49;5.45;;;3.28;;
66603;SDS011;53460;39.612;8.822;2023-02-01T00:51:16;6.43;;;3.10;;
66603;SDS011;53460;39.612;8.822;2023-02-01T00:53:44;5.85;;;2.72;;
66603;SDS011;53460;39.612;8.822;2023-02-01T00:56:10;7.13;;;2.97;;
66603;SDS011;53460;39.612;8.822;2023-02-01T00:58:37;7.70;;;3.70;;
66603;SDS011;53460;39.612;8.822;2023-02-01T01:01:07;7.82;;;5.00;;
66603;SDS011;53460;39.612;8.822;2023-02-01T01:03:35;21.00;;;10.07;;
66603;SDS011;53460;39.612;8.822;2023-02-01T01:06:04;15.90;;;8.98;;
66603;SDS011;53460;39.612;8.822;2023-02-01T01:08:32;12.32;;;6.90;;
66603;SDS011;53460;39.612;8.822;2023-02-01T01:10:58;9.07;;;5.43;;
66603;SDS011;53460;39.612;8.822;2023-02-01T01:13:24;6.55;;;4.13;;
66603;SDS011;53460;39.612;8.822;2023-02-01T01:15:50;7.32;;;4.32;;
66603;SDS011;53460;39.612;8.822;2023-02-01T01:18:16;8.02;;;3.95;;
66603;SDS011;53460;39.612;8.822;2023-02-01T01:20:41;7.00;;;3.40;;
66603;SDS011;53460;39.612;8.822;2023-02-01T01:23:07;4.80;;;3.67;;
66603;SDS011;53460;39.612;8.822;2023-02-01T01:25:40;5.47;;;3.33;;
66603;SDS011;53460;39.612;8.822;2023-02-01T01:28:06;8.32;;;3.80;;
66603;SDS011;53460;39.612;8.822;2023-02-01T01:30:35;8.70;;;4.00;;
66603;SDS011;53460;39.612;8.822;2023-02-01T01:33:01;6.78;;;3.17;;
66603;SDS011;53460;39.612;8.822;2023-02-01T01:35:28;8.85;;;3.03;;
66603;SDS011;53460;39.612;8.822;2023-02-01T01:37:58;7.15;;;3.60;;
66603;SDS011;53460;39.612;8.822;2023-02-01T01:40:24;9.70;;;2.90;;
66603;SDS011;53460;39.612;8.822;2023-02-01T01:42:50;7.03;;;3.10;;
66603;SDS011;53460;39.612;8.822;2023-02-01T01:45:22;8.32;;;3.33;;
66603;SDS011;53460;39.612;8.822;2023-02-01T01:47:59;6.20;;;3.00;;
66603;SDS011;53460;39.612;8.822;2023-02-01T01:50:36;5.50;;;2.90;;
66603;SDS011;53460;39.612;8.822;2023-02-01T01:53:06;6.57;;;3.10;;
66603;SDS011;53460;39.612;8.822;2023-02-01T01:55:35;6.25;;;2.92;;
66603;SDS011;53460;39.612;8.822;2023-02-01T01:58:08;5.32;;;2.72;;
66603;SDS011;53460;39.612;8.822;2023-02-01T02:00:37;10.38;;;3.17;;
66603;SDS011;53460;39.612;8.822;2023-02-01T02:03:07;7.70;;;3.28;;
66603;SDS011;53460;39.612;8.822;2023-02-01T02:05:39;7.88;;;2.90;;
66603;SDS011;53460;39.612;8.822;2023-02-01T02:08:05;5.88;;;3.30;;
66603;SDS011;53460;39.612;8.822;2023-02-01T02:10:31;8.23;;;3.72;;
66603;SDS011;53460;39.612;8.822;2023-02-01T02:13:16;9.77;;;3.60;;
66603;SDS011;53460;39.612;8.822;2023-02-01T02:15:45;4.95;;;3.50;;
66603;SDS011;53460;39.612;8.822;2023-02-01T02:18:29;6.70;;;4.15;;
66603;SDS011;53460;39.612;8.822;2023-02-01T02:32:23;13.13;;;5.75;;
66603;SDS011;53460;39.612;8.822;2023-02-01T02:40:37;7.57;;;3.78;;
66603;SDS011;53460;39.612;8.822;2023-02-01T02:46:25;5.50;;;3.50;;
66603;SDS011;53460;39.612;8.822;2023-02-01T02:52:04;4.10;;;3.33;;
66603;SDS011;53460;39.612;8.822;2023-02-01T02:54:57;5.40;;;3.75;;
66603;SDS011;53460;39.612;8.822;2023-02-01T02:57:32;8.35;;;3.90;;
66603;SDS011;53460;39.612;8.822;2023-02-01T03:00:21;7.63;;;3.45;;
66603;SDS011;53460;39.612;8.822;2023-02-01T03:03:17;9.65;;;4.28;;
66603;SDS011;53460;39.612;8.822;2023-02-01T03:06:02;5.18;;;4.00;;
66603;SDS011;53460;39.612;8.822;2023-02-01T03:08:29;6.25;;;3.78;;
66603;SDS011;53460;39.612;8.822;2023-02-01T03:11:04;5.85;;;3.70;;
66603;SDS011;53460;39.612;8.822;2023-02-01T03:13:35;5.50;;;3.58;;
66603;SDS011;53460;39.612;8.822;2023-02-01T03:18:35;10.90;;;3.97;;
66603;SDS011;53460;39.612;8.822;2023-02-01T03:21:12;5.70;;;3.63;;
66603;SDS011;53460;39.612;8.822;2023-02-01T03:23:43;7.80;;;3.73;;
66603;SDS011;53460;39.612;8.822;2023-02-01T03:26:13;8.35;;;3.58;;
66603;SDS011;53460;39.612;8.822;2023-02-01T03:28:43;7.85;;;4.05;;
66603;SDS011;53460;39.612;8.822;2023-02-01T03:31:14;6.53;;;3.33;;
66603;SDS011;53460;39.612;8.822;2023-02-01T03:33:41;6.22;;;3.55;;
66603;SDS011;53460;39.612;8.822;2023-02-01T03:41:48;7.10;;;3.45;;
66603;SDS011;53460;39.612;8.822;2023-02-01T03:47:08;7.95;;;4.10;;
66603;SDS011;53460;39.612;8.822;2023-02-01T03:50:03;4.70;;;2.65;;
66603;SDS011;53460;39.612;8.822;2023-02-01T03:52:34;4.57;;;2.40;;
66603;SDS011;53460;39.612;8.822;2023-02-01T03:55:09;4.82;;;2.38;;
66603;SDS011;53460;39.612;8.822;2023-02-01T03:57:50;8.10;;;3.47;;
66603;SDS011;53460;39.612;8.822;2023-02-01T04:00:24;10.48;;;4.35;;
66603;SDS011;53460;39.612;8.822;2023-02-01T04:02:51;10.80;;;4.38;;
66603;SDS011;53460;39.612;8.822;2023-02-01T04:05:18;7.60;;;3.63;;
66603;SDS011;53460;39.612;8.822;2023-02-01T04:07:52;5.07;;;3.22;;
66603;SDS011;53460;39.612;8.822;2023-02-01T04:10:19;7.25;;;3.30;;
66603;SDS011;53460;39.612;8.822;2023-02-01T04:12:45;7.03;;;2.72;;
66603;SDS011;53460;39.612;8.822;2023-02-01T04:15:11;6.82;;;3.08;;
66603;SDS011;53460;39.612;8.822;2023-02-01T04:17:36;6.55;;;2.75;;
66603;SDS011;53460;39.612;8.822;2023-02-01T04:20:02;5.22;;;2.40;;
66603;SDS011;53460;39.612;8.822;2023-02-01T04:22:30;5.57;;;2.50;;
66603;SDS011;53460;39.612;8.822;2023-02-01T04:24:55;9.52;;;3.78;;
66603;SDS011;53460;39.612;8.822;2023-02-01T04:27:21;7.38;;;3.83;;
66603;SDS011;53460;39.612;8.822;2023-02-01T04:29:47;7.53;;;3.30;;
66603;SDS011;53460;39.612;8.822;2023-02-01T04:32:15;6.70;;;3.15;;
66603;SDS011;53460;39.612;8.822;2023-02-01T04:34:41;4.90;;;2.58;;
66603;SDS011;53460;39.612;8.822;2023-02-01T04:37:07;4.95;;;2.88;;
66603;SDS011;53460;39.612;8.822;2023-02-01T04:39:32;3.72;;;2.05;;
66603;SDS011;53460;39.612;8.822;2023-02-01T04:41:58;4.10;;;2.65;;
66603;SDS011;53460;39.612;8.822;2023-02-01T04:44:24;4.30;;;2.40;;
66603;SDS011;53460;39.612;8.822;2023-02-01T04:46:50;5.85;;;1.95;;
66603;SDS011;53460;39.612;8.822;2023-02-01T04:49:16;7.50;;;2.40;;
66603;SDS011;53460;39.612;8.822;2023-02-01T04:51:42;3.58;;;1.63;;
66603;SDS011;53460;39.612;8.822;2023-02-01T04:54:08;5.05;;;1.95;;
66603;SDS011;53460;39.612;8.822;2023-02-01T04:56:36;7.72;;;2.20;;
66603;SDS011;53460;39.612;8.822;2023-02-01T04:59:02;5.45;;;2.17;;
66603;SDS011;53460;39.612;8.822;2023-02-01T05:01:28;4.43;;;2.40;;
66603;SDS011;53460;39.612;8.822;2023-02-01T05:03:54;5.60;;;2.80;;
66603;SDS011;53460;39.612;8.822;2023-02-01T05:06:20;4.88;;;3.03;;
66603;SDS011;53460;39.612;8.822;2023-02-01T05:08:47;6.95;;;3.10;;
66603;SDS011;53460;39.612;8.822;2023-02-01T05:11:12;4.75;;;3.83;;
66603;SDS011;53460;39.612;8.822;2023-02-01T05:13:57;5.70;;;3.72;;
66603;SDS011;53460;39.612;8.822;2023-02-01T05:16:23;4.72;;;3.65;;
66603;SDS011;53460;39.612;8.822;2023-02-01T05:18:50;6.30;;;3.85;;
66603;SDS011;53460;39.612;8.822;2023-02-01T05:21:16;7.65;;;4.07;;
66603;SDS011;53460;39.612;8.822;2023-02-01T05:23:42;5.85;;;3.97;;
66603;SDS011;53460;39.612;8.822;2023-02-01T05:26:26;10.10;;;7.03;;
66603;SDS011;53460;39.612;8.822;2023-02-01T05:28:52;15.57;;;9.68;;
66603;SDS011;53460;39.612;8.822;2023-02-01T05:31:18;14.48;;;8.10;;
66603;SDS011;53460;39.612;8.822;2023-02-01T05:33:43;11.80;;;7.10;;
66603;SDS011;53460;39.612;8.822;2023-02-01T05:36:09;5.97;;;5.20;;
66603;SDS011;53460;39.612;8.822;2023-02-01T05:38:35;8.00;;;6.30;;
66603;SDS011;53460;39.612;8.822;2023-02-01T05:41:01;12.05;;;8.15;;
66603;SDS011;53460;39.612;8.822;2023-02-01T05:43:26;10.20;;;8.52;;
66603;SDS011;53460;39.612;8.822;2023-02-01T05:45:52;10.15;;;7.82;;
66603;SDS011;53460;39.612;8.822;2023-02-01T05:48:18;12.75;;;6.88;;
66603;SDS011;53460;39.612;8.822;2023-02-01T05:50:44;11.40;;;7.28;;
66603;SDS011;53460;39.612;8.822;2023-02-01T05:53:10;9.23;;;6.35;;
66603;SDS011;53460;39.612;8.822;2023-02-01T05:55:36;11.07;;;8.38;;
66603;SDS011;53460;39.612;8.822;2023-02-01T05:58:02;10.63;;;7.55;;
66603;SDS011;53460;39.612;8.822;2023-02-01T06:00:29;9.90;;;7.43;;
66603;SDS011;53460;39.612;8.822;2023-02-01T06:02:54;10.57;;;7.32;;
66603;SDS011;53460;39.612;8.822;2023-02-01T06:05:20;10.15;;;7.03;;
66603;SDS011;53460;39.612;8.822;2023-02-01T06:07:46;11.07;;;7.03;;
66603;SDS011;53460;39.612;8.822;2023-02-01T06:10:12;9.05;;;6.22;;
66603;SDS011;53460;39.612;8.822;2023-02-01T06:12:38;9.63;;;5.60;;
66603;SDS011;53460;39.612;8.822;2023-02-01T06:15:04;15.63;;;6.15;;
66603;SDS011;53460;39.612;8.822;2023-02-01T06:17:30;10.30;;;5.07;;
66603;SDS011;53460;39.612;8.822;2023-02-01T06:19:56;13.77;;;6.50;;
66603;SDS011;53460;39.612;8.822;2023-02-01T06:22:21;7.05;;;6.28;;
66603;SDS011;53460;39.612;8.822;2023-02-01T06:24:47;11.10;;;8.35;;
66603;SDS011;53460;39.612;8.822;2023-02-01T06:27:14;19.20;;;10.65;;
66603;SDS011;53460;39.612;8.822;2023-02-01T06:29:40;14.30;;;10.68;;
66603;SDS011;53460;39.612;8.822;2023-02-01T06:32:06;10.30;;;8.45;;
66603;SDS011;53460;39.612;8.822;2023-02-01T06:34:32;13.25;;;8.20;;
66603;SDS011;53460;39.612;8.822;2023-02-01T06:36:57;12.77;;;9.13;;
66603;SDS011;53460;39.612;8.822;2023-02-01T06:39:23;45.78;;;22.10;;
66603;SDS011;53460;39.612;8.822;2023-02-01T06:41:49;40.00;;;24.10;;
66603;SDS011;53460;39.612;8.822;2023-02-01T06:44:15;37.30;;;23.88;;
66603;SDS011;53460;39.612;8.822;2023-02-01T06:46:42;47.78;;;24.23;;
66603;SDS011;53460;39.612;8.822;2023-02-01T06:49:07;40.38;;;29.00;;
66603;SDS011;53460;39.612;8.822;2023-02-01T06:51:34;37.28;;;27.38;;
66603;SDS011;53460;39.612;8.822;2023-02-01T06:54:00;34.95;;;26.33;;
66603;SDS011;53460;39.612;8.822;2023-02-01T06:56:26;29.85;;;22.10;;
66603;SDS011;53460;39.612;8.822;2023-02-01T06:58:52;33.92;;;21.85;;
66603;SDS011;53460;39.612;8.822;2023-02-01T07:01:18;22.92;;;17.35;;
66603;SDS011;53460;39.612;8.822;2023-02-01T07:03:48;23.42;;;18.25;;
66603;SDS011;53460;39.612;8.822;2023-02-01T07:06:16;26.90;;;16.83;;
66603;SDS011;53460;39.612;8.822;2023-02-01T07:08:42;21.35;;;15.40;;
66603;SDS011;53460;39.612;8.822;2023-02-01T07:11:09;22.65;;;16.45;;
66603;SDS011;53460;39.612;8.822;2023-02-01T07:13:37;20.25;;;15.13;;
66603;SDS011;53460;39.612;8.822;2023-02-01T07:16:03;38.33;;;28.80;;
66603;SDS011;53460;39.612;8.822;2023-02-01T07:18:30;23.92;;;17.73;;
66603;SDS011;53460;39.612;8.822;2023-02-01T07:20:57;28.85;;;21.10;;
66603;SDS011;53460;39.612;8.822;2023-02-01T07:23:23;26.73;;;20.30;;
66603;SDS011;53460;39.612;8.822;2023-02-01T07:25:52;16.63;;;14.93;;
66603;SDS011;53460;39.612;8.822;2023-02-01T07:28:19;37.63;;;27.85;;
66603;SDS011;53460;39.612;8.822;2023-02-01T07:30:45;32.08;;;25.73;;
66603;SDS011;53460;39.612;8.822;2023-02-01T07:33:24;28.35;;;21.77;;
66603;SDS011;53460;39.612;8.822;2023-02-01T07:35:51;30.63;;;20.80;;
66603;SDS011;53460;39.612;8.822;2023-02-01T07:38:17;26.92;;;19.15;;
66603;SDS011;53460;39.612;8.822;2023-02-01T07:40:43;32.58;;;23.95;;
66603;SDS011;53460;39.612;8.822;2023-02-01T07:43:09;28.52;;;17.67;;
66603;SDS011;53460;39.612;8.822;2023-02-01T07:45:35;41.67;;;31.15;;
66603;SDS011;53460;39.612;8.822;2023-02-01T07:48:02;41.00;;;32.08;;
66603;SDS011;53460;39.612;8.822;2023-02-01T07:50:28;60.35;;;45.70;;
66603;SDS011;53460;39.612;8.822;2023-02-01T07:52:54;82.88;;;46.10;;
66603;SDS011;53460;39.612;8.822;2023-02-01T07:55:20;62.33;;;40.92;;
66603;SDS011;53460;39.612;8.822;2023-02-01T07:57:46;62.05;;;37.92;;
66603;SDS011;53460;39.612;8.822;2023-02-01T08:00:12;67.65;;;40.53;;
66603;SDS011;53460;39.612;8.822;2023-02-01T08:02:58;65.60;;;43.60;;
66603;SDS011;53460;39.612;8.822;2023-02-01T08:05:24;43.67;;;34.55;;
66603;SDS011;53460;39.612;8.822;2023-02-01T08:07:50;44.58;;;34.53;;
66603;SDS011;53460;39.612;8.822;2023-02-01T08:10:16;57.00;;;41.60;;
66603;SDS011;53460;39.612;8.822;2023-02-01T08:12:42;57.65;;;42.58;;
66603;SDS011;53460;39.612;8.822;2023-02-01T08:15:08;57.33;;;40.95;;
66603;SDS011;53460;39.612;8.822;2023-02-01T08:17:34;56.42;;;41.70;;
66603;SDS011;53460;39.612;8.822;2023-02-01T08:20:00;37.80;;;26.75;;
66603;SDS011;53460;39.612;8.822;2023-02-01T08:22:25;26.27;;;19.02;;
66603;SDS011;53460;39.612;8.822;2023-02-01T08:24:51;24.60;;;19.92;;
66603;SDS011;53460;39.612;8.822;2023-02-01T08:27:23;31.98;;;21.90;;
66603;SDS011;53460;39.612;8.822;2023-02-01T08:29:49;29.25;;;20.13;;
66603;SDS011;53460;39.612;8.822;2023-02-01T08:32:15;29.25;;;22.13;;
66603;SDS011;53460;39.612;8.822;2023-02-01T08:34:40;34.35;;;23.17;;
66603;SDS011;53460;39.612;8.822;2023-02-01T08:37:06;33.70;;;24.00;;
66603;SDS011;53460;39.612;8.822;2023-02-01T08:39:32;29.20;;;22.65;;
66603;SDS011;53460;39.612;8.822;2023-02-01T08:41:57;33.22;;;22.92;;
66603;SDS011;53460;39.612;8.822;2023-02-01T08:44:42;35.80;;;26.23;;
66603;SDS011;53460;39.612;8.822;2023-02-01T08:47:07;28.98;;;21.05;;
66603;SDS011;53460;39.612;8.822;2023-02-01T08:49:33;28.70;;;21.48;;
66603;SDS011;53460;39.612;8.822;2023-02-01T08:51:58;22.73;;;16.55;;
66603;SDS011;53460;39.612;8.822;2023-02-01T08:54:24;21.58;;;18.17;;
66603;SDS011;53460;39.612;8.822;2023-02-01T08:56:50;19.83;;;16.77;;
66603;SDS011;53460;39.612;8.822;2023-02-01T08:59:15;23.50;;;15.38;;
66603;SDS011;53460;39.612;8.822;2023-02-01T09:01:41;20.42;;;14.68;;
66603;SDS011;53460;39.612;8.822;2023-02-01T09:04:07;19.13;;;12.45;;
66603;SDS011;53460;39.612;8.822;2023-02-01T09:06:32;15.98;;;10.45;;
66603;SDS011;53460;39.612;8.822;2023-02-01T09:08:59;16.83;;;9.10;;
66603;SDS011;53460;39.612;8.822;2023-02-01T09:11:25;15.60;;;8.27;;
66603;SDS011;53460;39.612;8.822;2023-02-01T09:13:51;10.07;;;5.85;;
66603;SDS011;53460;39.612;8.822;2023-02-01T09:16:17;12.30;;;6.20;;
66603;SDS011;53460;39.612;8.822;2023-02-01T09:18:43;6.05;;;4.18;;
66603;SDS011;53460;39.612;8.822;2023-02-01T09:21:08;7.10;;;3.78;;
66603;SDS011;53460;39.612;8.822;2023-02-01T09:23:34;5.75;;;3.75;;
66603;SDS011;53460;39.612;8.822;2023-02-01T09:26:00;6.45;;;3.30;;
66603;SDS011;53460;39.612;8.822;2023-02-01T09:28:27;6.68;;;3.95;;
66603;SDS011;53460;39.612;8.822;2023-02-01T09:30:59;6.38;;;2.88;;
66603;SDS011;53460;39.612;8.822;2023-02-01T09:33:26;7.57;;;3.13;;
66603;SDS011;53460;39.612;8.822;2023-02-01T09:36:00;9.38;;;4.47;;
66603;SDS011;53460;39.612;8.822;2023-02-01T09:38:28;9.27;;;3.17;;
66603;SDS011;53460;39.612;8.822;2023-02-01T09:40:54;8.52;;;5.63;;
66603;SDS011;53460;39.612;8.822;2023-02-01T09:43:23;6.35;;;3.40;;
66603;SDS011;53460;39.612;8.822;2023-02-01T09:48:32;5.25;;;2.63;;
66603;SDS011;53460;39.612;8.822;2023-02-01T09:51:02;4.78;;;2.00;;
66603;SDS011;53460;39.612;8.822;2023-02-01T09:56:12;7.05;;;2.72;;
66603;SDS011;53460;39.612;8.822;2023-02-01T09:58:47;7.15;;;3.67;;
66603;SDS011;53460;39.612;8.822;2023-02-01T10:01:25;12.32;;;5.70;;
66603;SDS011;53460;39.612;8.822;2023-02-01T10:03:54;10.45;;;5.53;;
66603;SDS011;53460;39.612;8.822;2023-02-01T10:31:42;6.53;;;3.67;;
66603;SDS011;53460;39.612;8.822;2023-02-01T10:34:17;9.00;;;5.63;;
66603;SDS011;53460;39.612;8.822;2023-02-01T10:36:56;11.52;;;8.10;;
66603;SDS011;53460;39.612;8.822;2023-02-01T10:39:24;6.80;;;3.35;;
66603;SDS011;53460;39.612;8.822;2023-02-01T10:41:50;7.38;;;5.10;;
66603;SDS011;53460;39.612;8.822;2023-02-01T10:44:20;6.35;;;4.13;;
66603;SDS011;53460;39.612;8.822;2023-02-01T10:46:49;11.60;;;7.60;;
66603;SDS011;53460;39.612;8.822;2023-02-01T10:49:21;10.98;;;9.18;;
66603;SDS011;53460;39.612;8.822;2023-02-01T10:52:00;12.10;;;9.18;;
66603;SDS011;53460;39.612;8.822;2023-02-01T10:54:53;11.13;;;7.93;;
66603;SDS011;53460;39.612;8.822;2023-02-01T10:57:21;21.75;;;19.50;;
66603;SDS011;53460;39.612;8.822;2023-02-01T10:59:49;10.57;;;5.80;;
66603;SDS011;53460;39.612;8.822;2023-02-01T11:02:31;6.50;;;4.28;;
66603;SDS011;53460;39.612;8.822;2023-02-01T11:05:08;9.80;;;3.30;;
66603;SDS011;53460;39.612;8.822;2023-02-01T11:07:37;3.55;;;2.33;;
66603;SDS011;53460;39.612;8.822;2023-02-01T11:10:33;8.98;;;3.30;;
66603;SDS011;53460;39.612;8.822;2023-02-01T11:13:16;5.50;;;2.88;;
66603;SDS011;53460;39.612;8.822;2023-02-01T11:15:47;7.60;;;6.05;;
66603;SDS011;53460;39.612;8.822;2023-02-01T11:18:25;4.80;;;2.88;;
66603;SDS011;53460;39.612;8.822;2023-02-01T11:20:53;5.38;;;3.45;;
66603;SDS011;53460;39.612;8.822;2023-02-01T11:23:24;5.82;;;4.25;;
66603;SDS011;53460;39.612;8.822;2023-02-01T11:25:55;6.47;;;2.42;;
66603;SDS011;53460;39.612;8.822;2023-02-01T11:28:27;8.90;;;3.67;;
66603;SDS011;53460;39.612;8.822;2023-02-01T11:30:56;4.75;;;2.58;;
66603;SDS011;53460;39.612;8.822;2023-02-01T11:33:25;6.38;;;3.85;;
66603;SDS011;53460;39.612;8.822;2023-02-01T11:35:59;4.32;;;2.28;;
66603;SDS011;53460;39.612;8.822;2023-02-01T11:41:10;6.97;;;3.10;;
66603;SDS011;53460;39.612;8.822;2023-02-01T11:43:40;7.05;;;4.60;;
66603;SDS011;53460;39.612;8.822;2023-02-01T11:46:22;10.82;;;4.57;;
66603;SDS011;53460;39.612;8.822;2023-02-01T11:49:20;6.85;;;3.22;;
66603;SDS011;53460;39.612;8.822;2023-02-01T11:54:34;4.90;;;3.40;;
66603;SDS011;53460;39.612;8.822;2023-02-01T11:57:29;7.47;;;3.80;;
66603;SDS011;53460;39.612;8.822;2023-02-01T12:08:23;7.85;;;3.50;;
66603;SDS011;53460;39.612;8.822;2023-02-01T12:14:09;8.35;;;2.70;;
66603;SDS011;53460;39.612;8.822;2023-02-01T12:19:36;6.38;;;4.75;;
66603;SDS011;53460;39.612;8.822;2023-02-01T12:22:40;5.65;;;3.00;;
66603;SDS011;53460;39.612;8.822;2023-02-01T12:41:50;11.02;;;8.70;;
66603;SDS011;53460;39.612;8.822;2023-02-01T12:44:29;8.30;;;6.25;;
66603;SDS011;53460;39.612;8.822;2023-02-01T12:47:02;7.95;;;5.95;;
66603;SDS011;53460;39.612;8.822;2023-02-01T12:52:44;12.43;;;3.85;;
66603;SDS011;53460;39.612;8.822;2023-02-01T12:55:46;62.80;;;7.43;;
66603;SDS011;53460;39.612;8.822;2023-02-01T12:58:17;5.88;;;2.63;;
66603;SDS011;53460;39.612;8.822;2023-02-01T13:01:05;7.57;;;6.57;;
66603;SDS011;53460;39.612;8.822;2023-02-01T13:06:22;4.70;;;2.80;;
66603;SDS011;53460;39.612;8.822;2023-02-01T13:11:27;4.10;;;3.58;;
66603;SDS011;53460;39.612;8.822;2023-02-01T13:13:59;6.05;;;2.88;;
66603;SDS011;53460;39.612;8.822;2023-02-01T13:16:48;6.38;;;3.60;;
66603;SDS011;53460;39.612;8.822;2023-02-01T13:22:27;6.00;;;2.33;;
66603;SDS011;53460;39.612;8.822;2023-02-01T13:27:44;8.30;;;6.07;;
66603;SDS011;53460;39.612;8.822;2023-02-01T13:43:54;7.32;;;2.35;;
66603;SDS011;53460;39.612;8.822;2023-02-01T13:46:24;6.20;;;3.30;;
66603;SDS011;53460;39.612;8.822;2023-02-01T13:48:51;5.20;;;3.03;;
66603;SDS011;53460;39.612;8.822;2023-02-01T13:51:42;6.25;;;2.83;;
66603;SDS011;53460;39.612;8.822;2023-02-01T13:57:28;5.38;;;2.08;;
66603;SDS011;53460;39.612;8.822;2023-02-01T14:00:05;9.50;;;6.70;;
66603;SDS011;53460;39.612;8.822;2023-02-01T14:08:14;9.15;;;4.05;;
66603;SDS011;53460;39.612;8.822;2023-02-01T14:16:14;3.92;;;2.50;;
66603;SDS011;53460;39.612;8.822;2023-02-01T14:21:19;11.77;;;8.18;;
66603;SDS011;53460;39.612;8.822;2023-02-01T14:26:55;8.18;;;3.40;;
66603;SDS011;53460;39.612;8.822;2023-02-01T14:29:33;6.95;;;2.63;;
66603;SDS011;53460;39.612;8.822;2023-02-01T14:32:03;4.82;;;2.30;;
66603;SDS011;53460;39.612;8.822;2023-02-01T14:34:35;5.82;;;2.20;;
66603;SDS011;53460;39.612;8.822;2023-02-01T14:44:42;3.55;;;1.67;;
66603;SDS011;53460;39.612;8.822;2023-02-01T14:50:03;4.90;;;2.00;;
66603;SDS011;53460;39.612;8.822;2023-02-01T14:52:32;6.05;;;2.10;;
66603;SDS011;53460;39.612;8.822;2023-02-01T14:55:00;6.10;;;2.20;;
66603;SDS011;53460;39.612;8.822;2023-02-01T14:57:30;9.27;;;2.47;;
66603;SDS011;53460;39.612;8.822;2023-02-01T15:00:07;4.63;;;2.00;;
66603;SDS011;53460;39.612;8.822;2023-02-01T15:02:41;3.90;;;1.98;;
66603;SDS011;53460;39.612;8.822;2023-02-01T15:05:25;9.65;;;2.30;;
66603;SDS011;53460;39.612;8.822;2023-02-01T15:10:18;6.47;;;1.90;;
66603;SDS011;53460;39.612;8.822;2023-02-01T15:12:46;8.98;;;2.00;;
66603;SDS011;53460;39.612;8.822;2023-02-01T15:17:54;4.30;;;1.77;;
66603;SDS011;53460;39.612;8.822;2023-02-01T15:20:26;3.45;;;1.65;;
66603;SDS011;53460;39.612;8.822;2023-02-01T15:25:26;4.35;;;1.95;;
66603;SDS011;53460;39.612;8.822;2023-02-01T15:27:54;7.35;;;1.75;;
66603;SDS011;53460;39.612;8.822;2023-02-01T15:32:47;4.80;;;1.75;;
66603;SDS011;53460;39.612;8.822;2023-02-01T15:40:55;5.28;;;2.88;;
66603;SDS011;53460;39.612;8.822;2023-02-01T15:43:24;5.38;;;2.30;;
66603;SDS011;53460;39.612;8.822;2023-02-01T15:45:52;4.45;;;1.77;;
66603;SDS011;53460;39.612;8.822;2023-02-01T15:48:22;5.90;;;1.92;;
66603;SDS011;53460;39.612;8.822;2023-02-01T15:50:50;5.20;;;1.83;;
66603;SDS011;53460;39.612;8.822;2023-02-01T15:53:23;6.30;;;1.50;;
66603;SDS011;53460;39.612;8.822;2023-02-01T15:55:54;4.03;;;1.77;;
66603;SDS011;53460;39.612;8.822;2023-02-01T15:58:22;4.80;;;1.83;;
66603;SDS011;53460;39.612;8.822;2023-02-01T16:00:50;8.60;;;2.50;;
66603;SDS011;53460;39.612;8.822;2023-02-01T16:03:37;5.25;;;2.38;;
66603;SDS011;53460;39.612;8.822;2023-02-01T16:06:29;5.15;;;1.90;;
66603;SDS011;53460;39.612;8.822;2023-02-01T16:09:00;4.10;;;1.73;;
66603;SDS011;53460;39.612;8.822;2023-02-01T16:11:29;6.47;;;1.60;;
66603;SDS011;53460;39.612;8.822;2023-02-01T16:13:57;6.22;;;2.03;;
66603;SDS011;53460;39.612;8.822;2023-02-01T16:16:24;6.80;;;1.90;;
66603;SDS011;53460;39.612;8.822;2023-02-01T16:18:50;4.65;;;2.20;;
66603;SDS011;53460;39.612;8.822;2023-02-01T16:21:16;4.93;;;3.53;;
66603;SDS011;53460;39.612;8.822;2023-02-01T16:23:42;7.43;;;3.08;;
66603;SDS011;53460;39.612;8.822;2023-02-01T16:26:08;10.05;;;3.35;;
66603;SDS011;53460;39.612;8.822;2023-02-01T16:28:33;6.78;;;2.45;;
66603;SDS011;53460;39.612;8.822;2023-02-01T16:30:59;8.40;;;2.70;;
66603;SDS011;53460;39.612;8.822;2023-02-01T16:33:26;5.30;;;1.80;;
66603;SDS011;53460;39.612;8.822;2023-02-01T16:35:52;9.63;;;4.55;;
66603;SDS011;53460;39.612;8.822;2023-02-01T16:38:22;6.65;;;3.25;;
66603;SDS011;53460;39.612;8.822;2023-02-01T16:40:49;7.10;;;3.10;;
66603;SDS011;53460;39.612;8.822;2023-02-01T16:43:16;6.95;;;3.15;;
66603;SDS011;53460;39.612;8.822;2023-02-01T16:45:43;12.23;;;2.42;;
66603;SDS011;53460;39.612;8.822;2023-02-01T16:51:09;5.72;;;4.65;;
66603;SDS011;53460;39.612;8.822;2023-02-01T16:53:37;7.82;;;4.28;;
66603;SDS011;53460;39.612;8.822;2023-02-01T16:58:58;6.55;;;2.20;;
66603;SDS011;53460;39.612;8.822;2023-02-01T17:01:24;7.07;;;2.17;;
66603;SDS011;53460;39.612;8.822;2023-02-01T17:03:50;6.53;;;2.95;;
66603;SDS011;53460;39.612;8.822;2023-02-01T17:06:17;5.35;;;3.20;;
66603;SDS011;53460;39.612;8.822;2023-02-01T17:08:55;7.10;;;2.30;;
66603;SDS011;53460;39.612;8.822;2023-02-01T17:11:25;5.90;;;2.35;;
66603;SDS011;53460;39.612;8.822;2023-02-01T17:13:52;8.38;;;3.08;;
66603;SDS011;53460;39.612;8.822;2023-02-01T17:18:43;12.93;;;5.75;;
66603;SDS011;53460;39.612;8.822;2023-02-01T17:21:11;10.65;;;2.97;;
66603;SDS011;53460;39.612;8.822;2023-02-01T17:23:37;9.10;;;5.20;;
66603;SDS011;53460;39.612;8.822;2023-02-01T17:26:03;7.15;;;4.18;;
66603;SDS011;53460;39.612;8.822;2023-02-01T17:28:29;15.20;;;9.18;;
66603;SDS011;53460;39.612;8.822;2023-02-01T17:30:55;12.75;;;8.15;;
66603;SDS011;53460;39.612;8.822;2023-02-01T17:33:31;12.68;;;8.13;;
66603;SDS011;53460;39.612;8.822;2023-02-01T17:36:00;14.15;;;10.73;;
66603;SDS011;53460;39.612;8.822;2023-02-01T17:38:26;12.63;;;6.95;;
66603;SDS011;53460;39.612;8.822;2023-02-01T17:40:51;13.93;;;7.78;;
66603;SDS011;53460;39.612;8.822;2023-02-01T17:43:19;14.27;;;8.80;;
66603;SDS011;53460;39.612;8.822;2023-02-01T17:48:20;8.85;;;6.07;;
66603;SDS011;53460;39.612;8.822;2023-02-01T17:50:48;6.20;;;4.53;;
66603;SDS011;53460;39.612;8.822;2023-02-01T17:53:19;7.50;;;4.85;;
66603;SDS011;53460;39.612;8.822;2023-02-01T17:55:49;9.07;;;4.25;;
66603;SDS011;53460;39.612;8.822;2023-02-01T17:58:15;7.63;;;2.80;;
66603;SDS011;53460;39.612;8.822;2023-02-01T18:00:42;7.10;;;2.72;;
66603;SDS011;53460;39.612;8.822;2023-02-01T18:03:28;7.15;;;3.30;;